Time;durP1;ratioP1;P1;durP2;ratioP2;P2;SDS_P1;SDS_P2;PMS_P1;PMS_P2;Temp;Humidity;BMP_temperature;BMP_pressure;BME280_temperature;BME280_humidity;BME280_pressure;Samples;Min_cycle;Max_cycle;Signal;HPM_P1;HPM_P2
2021/01/17 00:01:03;;;;;;;26.60;14.52;;;;;;;-4.02;73.16;95816.81;4966179;28;20058;-44
2021/01/17 00:03:29;;;;;;;30.65;15.00;;;;;;;-4.08;73.30;95805.34;4953673;28;20131;-44
2021/01/17 00:05:56;;;;;;;28.08;15.27;;;;;;;-4.44;73.83;95763.63;4958134;28;20121;-43
2021/01/17 00:08:23;;;;;;;27.02;14.48;;;;;;;-4.06;73.16;95791.91;4953687;28;20055;-43
2021/01/17 00:10:49;;;;;;;28.40;15.40;;;;;;;-4.14;74.10;95801.03;4956101;28;20090;-44
2021/01/17 00:13:16;;;;;;;29.92;15.40;;;;;;;-3.76;72.53;95787.03;4972251;28;20058;-46
2021/01/17 00:15:42;;;;;;;28.95;15.30;;;;;;;-3.74;72.47;95786.75;4969326;28;20063;-43
2021/01/17 00:18:10;;;;;;;28.20;14.65;;;;;;;-3.84;72.55;95784.00;4971698;28;20080;-44
2021/01/17 00:20:44;;;;;;;27.67;14.55;;;;;;;-3.93;72.43;95775.72;4970313;28;20398;-44
2021/01/17 00:23:10;;;;;;;27.90;14.15;;;;;;;-4.04;72.79;95772.13;4971606;28;20485;-42
2021/01/17 00:25:36;;;;;;;29.08;14.27;;;;;;;-3.91;72.87;95767.53;4972219;28;20055;-43
2021/01/17 00:28:03;;;;;;;30.15;15.38;;;;;;;-3.93;72.73;95756.38;4963775;28;20049;-43
2021/01/17 00:30:31;;;;;;;25.90;14.20;;;;;;;-3.83;72.54;95764.47;4961568;28;20106;-44
2021/01/17 00:33:00;;;;;;;30.23;15.40;;;;;;;-3.92;72.83;95753.50;4956299;28;20610;-43
2021/01/17 00:35:28;;;;;;;29.27;15.82;;;;;;;-3.77;72.44;95755.53;4969136;28;20090;-43
2021/01/17 00:37:56;;;;;;;26.40;14.50;;;;;;;-3.92;72.51;95739.50;4967020;28;20047;-43
2021/01/17 00:40:24;;;;;;;31.05;15.90;;;;;;;-3.87;72.48;95753.56;4963059;28;20047;-44
2021/01/17 00:42:51;;;;;;;27.42;14.55;;;;;;;-3.95;73.04;95756.66;4972116;28;20047;-45
2021/01/17 00:45:19;;;;;;;29.90;15.38;;;;;;;-3.86;72.55;95752.53;4972691;28;20059;-43
2021/01/17 00:47:47;;;;;;;26.98;14.73;;;;;;;-3.73;72.03;95761.94;4962859;28;20046;-42
2021/01/17 00:50:15;;;;;;;29.17;15.32;;;;;;;-3.80;71.95;95746.28;4969347;28;20050;-42
2021/01/17 00:52:42;;;;;;;28.92;14.50;;;;;;;-3.97;72.31;95731.50;4967467;28;20055;-45
2021/01/17 00:55:10;;;;;;;26.25;14.02;;;;;;;-3.80;72.15;95737.53;4942559;28;20397;-42
2021/01/17 00:57:39;;;;;;;28.38;14.80;;;;;;;-3.82;72.12;95743.06;4973196;28;20054;-43
2021/01/17 01:00:12;;;;;;;30.50;15.57;;;;;;;-3.67;71.95;95725.78;4986047;23;20043;-43
2021/01/17 01:02:55;;;;;;;27.30;14.48;;;;;;;-3.46;71.21;95730.25;4991203;28;20130;-44
2021/01/17 01:05:24;;;;;;;27.85;15.00;;;;;;;-3.65;71.67;95724.50;4973994;28;20046;-46
2021/01/17 01:07:52;;;;;;;27.73;14.13;;;;;;;-3.69;71.04;95722.59;4974846;28;20133;-45
2021/01/17 01:10:18;;;;;;;26.63;13.23;;;;;;;-3.55;70.74;95721.94;4975262;28;20062;-47
2021/01/17 01:12:45;;;;;;;27.25;14.07;;;;;;;-3.58;70.44;95714.50;4975193;28;20424;-46
2021/01/17 01:15:12;;;;;;;22.17;12.55;;;;;;;-3.64;70.41;95699.66;4969766;28;20512;-45
2021/01/17 01:17:38;;;;;;;25.20;14.63;;;;;;;-3.68;70.82;95713.59;4956337;28;20058;-47
2021/01/17 01:20:05;;;;;;;26.70;13.95;;;;;;;-3.55;70.57;95707.94;4962952;28;20448;-45
2021/01/17 01:22:32;;;;;;;23.15;13.82;;;;;;;-3.47;70.20;95701.44;4974309;28;20416;-46
2021/01/17 01:24:58;;;;;;;26.73;13.38;;;;;;;-3.60;70.31;95703.41;4967343;28;20067;-46
2021/01/17 01:27:25;;;;;;;24.67;13.77;;;;;;;-3.26;69.79;95695.28;4966570;28;20086;-43
2021/01/17 01:29:51;;;;;;;23.63;13.05;;;;;;;-3.48;69.76;95702.44;4966477;28;20050;-45
2021/01/17 01:32:19;;;;;;;24.20;12.45;;;;;;;-3.62;70.43;95692.25;4961989;28;20126;-45
2021/01/17 01:34:46;;;;;;;26.42;13.40;;;;;;;-3.60;70.48;95684.91;4964979;28;20086;-43
2021/01/17 01:37:13;;;;;;;23.70;12.93;;;;;;;-3.55;70.62;95682.28;4975153;28;20477;-43
2021/01/17 01:39:40;;;;;;;25.88;14.43;;;;;;;-3.49;70.18;95680.50;4969360;28;20055;-44
2021/01/17 01:42:07;;;;;;;25.52;14.25;;;;;;;-3.55;70.23;95682.28;4961615;28;20082;-43
2021/01/17 01:44:33;;;;;;;24.58;12.93;;;;;;;-3.40;69.75;95675.56;4967270;28;20058;-43
2021/01/17 01:47:01;;;;;;;24.27;13.18;;;;;;;-3.49;69.94;95675.22;4959570;28;20093;-41
2021/01/17 01:49:28;;;;;;;23.33;12.90;;;;;;;-3.56;69.96;95670.13;4968791;28;20055;-42
2021/01/17 01:52:03;;;;;;;23.25;13.00;;;;;;;-3.42;69.83;95667.88;4957480;28;20055;-43
2021/01/17 01:54:31;;;;;;;25.48;13.35;;;;;;;-3.37;69.65;95661.84;4974626;28;20069;-43
2021/01/17 01:56:57;;;;;;;23.75;12.85;;;;;;;-3.36;69.71;95658.13;4975088;28;20047;-44
2021/01/17 01:59:25;;;;;;;23.48;13.27;;;;;;;-3.52;69.88;95636.03;4961781;28;20051;-44
2021/01/17 02:01:53;;;;;;;26.63;13.13;;;;;;;-3.44;70.24;95645.38;4975419;28;20484;-44
2021/01/17 02:04:20;;;;;;;25.73;14.38;;;;;;;-3.53;70.12;95622.03;4972476;28;20139;-45
2021/01/17 02:07:12;;;;;;;25.30;13.32;;;;;;;-3.12;69.37;95646.19;4971732;28;20047;-44
2021/01/17 02:09:40;;;;;;;24.55;12.95;;;;;;;-3.15;68.71;95640.59;4961134;28;20058;-44
2021/01/17 02:12:16;;;;;;;25.05;13.43;;;;;;;-3.17;69.12;95638.19;4971617;28;20047;-44
2021/01/17 02:15:07;;;;;;;25.33;13.43;;;;;;;-3.11;69.37;95639.06;4966890;28;20057;-43
2021/01/17 02:17:35;;;;;;;25.27;12.90;;;;;;;-2.99;68.92;95630.91;4966714;28;20413;-45
2021/01/17 02:20:14;;;;;;;24.77;13.07;;;;;;;-2.71;68.17;95614.69;4966293;28;20051;-44
2021/01/17 02:22:46;;;;;;;23.65;13.40;;;;;;;-2.62;67.40;95612.38;4974087;28;20078;-45
2021/01/17 02:25:14;;;;;;;23.45;13.07;;;;;;;-2.74;67.85;95611.75;4972699;28;20460;-45
2021/01/17 02:27:43;;;;;;;24.98;13.50;;;;;;;-2.69;68.14;95612.59;4984795;28;20051;-47
2021/01/17 02:30:12;;;;;;;21.25;12.05;;;;;;;-2.54;67.28;95603.13;4959520;28;20047;-44
2021/01/17 02:32:45;;;;;;;21.67;12.27;;;;;;;-2.57;67.49;95601.78;4974510;28;20066;-48
2021/01/17 02:35:13;;;;;;;22.38;12.82;;;;;;;-2.48;67.24;95600.25;4976133;28;20034;-43
2021/01/17 02:38:05;;;;;;;22.15;12.20;;;;;;;-2.28;66.23;95591.59;4972396;28;20092;-44
2021/01/17 02:40:47;;;;;;;22.95;12.52;;;;;;;-2.48;67.08;95572.97;4963698;28;20051;-43
2021/01/17 02:43:14;;;;;;;22.77;12.68;;;;;;;-2.71;67.04;95559.09;4969579;28;20042;-45
2021/01/17 02:45:40;;;;;;;20.17;12.02;;;;;;;-2.63;67.84;95577.16;4970928;28;20059;-44
2021/01/17 02:48:07;;;;;;;22.38;11.55;;;;;;;-2.72;68.18;95575.25;4968324;28;20571;-44
2021/01/17 02:50:34;;;;;;;22.75;12.13;;;;;;;-2.86;69.29;95575.69;4958355;28;20560;-42
2021/01/17 02:53:38;;;;;;;21.92;12.05;;;;;;;-2.60;68.90;95571.34;4958097;28;20082;-46
2021/01/17 02:56:06;;;;;;;;;;;;;;;-2.63;68.68;95569.22;4958308;28;20094;-46
2021/01/17 02:58:34;;;;;;;22.13;11.77;;;;;;;-2.79;69.62;95564.88;4957124;28;19928;-43
2021/01/17 03:01:03;;;;;;;22.00;11.90;;;;;;;-2.86;69.95;95553.69;4970011;28;20057;-45
2021/01/17 03:03:38;;;;;;;20.65;11.68;;;;;;;-2.68;69.45;95569.16;4973718;28;20050;-47
2021/01/17 03:06:09;;;;;;;21.75;12.45;;;;;;;-2.48;68.90;95559.72;4972306;28;20058;-45
2021/01/17 03:08:37;;;;;;;23.35;12.85;;;;;;;-2.63;69.56;95563.13;4973834;28;20055;-44
2021/01/17 03:11:04;;;;;;;22.00;12.77;;;;;;;-2.66;69.38;95556.47;4973130;28;20465;-43
2021/01/17 03:13:35;;;;;;;22.75;12.98;;;;;;;-2.49;69.20;95550.19;4971757;28;20146;-44
2021/01/17 03:16:02;;;;;;;22.98;12.90;;;;;;;-2.76;70.21;95551.13;4969302;28;20051;-44
2021/01/17 03:18:29;;;;;;;23.75;13.18;;;;;;;-2.68;70.31;95547.97;4975013;28;20050;-43
2021/01/17 03:20:55;;;;;;;23.02;12.38;;;;;;;-2.56;69.90;95549.63;4968037;28;20047;-41
2021/01/17 03:23:22;;;;;;;24.63;13.52;;;;;;;-2.64;70.19;95549.06;4972883;28;20137;-42
2021/01/17 03:25:48;;;;;;;24.65;13.50;;;;;;;-2.69;71.36;95549.03;4956622;28;20065;-42
2021/01/17 03:28:14;;;;;;;23.65;13.35;;;;;;;-2.46;70.65;95561.06;4963985;28;20055;-42
2021/01/17 03:30:41;;;;;;;22.90;12.98;;;;;;;-2.46;70.56;95553.13;4972409;28;20413;-42
2021/01/17 03:33:08;;;;;;;24.90;13.68;;;;;;;-2.25;70.75;95539.94;4973128;28;20055;-43
2021/01/17 03:35:36;;;;;;;24.88;13.00;;;;;;;-2.14;70.86;95537.06;4941431;28;20051;-43
2021/01/17 03:38:02;;;;;;;24.08;14.48;;;;;;;-2.06;70.55;95530.44;4972102;28;20051;-43
2021/01/17 03:40:29;;;;;;;21.25;12.90;;;;;;;-2.10;70.54;95541.84;4972358;28;20089;-42
2021/01/17 03:42:55;;;;;;;26.55;14.48;;;;;;;-2.27;70.73;95526.16;4972645;28;20174;-42
2021/01/17 03:45:22;;;;;;;25.00;13.95;;;;;;;-2.30;71.53;95532.78;4970413;28;20113;-44
2021/01/17 03:47:48;;;;;;;25.25;13.82;;;;;;;-2.20;71.99;95534.66;4973349;28;20058;-43
2021/01/17 03:50:15;;;;;;;22.38;12.70;;;;;;;-2.14;71.91;95534.41;4958523;28;20054;-43
2021/01/17 03:52:41;;;;;;;24.02;13.30;;;;;;;-2.04;71.82;95540.81;4956523;28;20134;-42
2021/01/17 03:55:09;;;;;;;23.10;13.13;;;;;;;-2.10;71.57;95545.28;4972155;28;20130;-45
2021/01/17 03:57:36;;;;;;;23.85;13.70;;;;;;;-2.39;72.52;95537.78;4967151;28;20042;-42
2021/01/17 04:00:05;;;;;;;23.05;13.15;;;;;;;-2.58;73.32;95513.59;4967813;28;20365;-42
2021/01/17 04:02:38;;;;;;;22.95;13.70;;;;;;;-2.43;73.73;95539.34;4973441;28;20125;-42
2021/01/17 04:05:05;;;;;;;21.52;13.00;;;;;;;-2.59;74.14;95535.84;4968496;28;20058;-43
2021/01/17 04:07:32;;;;;;;21.30;12.30;;;;;;;-2.84;75.10;95544.47;4954612;28;20130;-42
2021/01/17 04:09:58;;;;;;;22.15;12.27;;;;;;;-2.92;75.48;95536.22;4972851;28;20082;-42
2021/01/17 04:12:25;;;;;;;21.70;11.63;;;;;;;-3.09;75.56;95542.47;4973000;28;20421;-44
2021/01/17 04:14:51;;;;;;;22.17;12.73;;;;;;;-2.96;75.84;95540.41;4981197;28;20417;-41
2021/01/17 04:17:17;;;;;;;21.40;11.50;;;;;;;-2.82;75.62;95541.56;4953350;28;20130;-43
2021/01/17 04:19:44;;;;;;;20.08;10.45;;;;;;;-3.09;76.45;95539.84;4963245;28;20066;-42
2021/01/17 04:22:10;;;;;;;20.27;10.43;;;;;;;-3.17;76.63;95536.84;4971828;28;20133;-42
2021/01/17 04:24:37;;;;;;;19.73;10.98;;;;;;;-3.34;76.78;95508.72;4971957;28;20051;-42
2021/01/17 04:27:03;;;;;;;19.27;11.55;;;;;;;-3.19;77.11;95531.00;4965698;28;20122;-41
2021/01/17 04:29:30;;;;;;;18.00;10.63;;;;;;;-3.20;76.86;95530.22;4957838;28;20082;-44
2021/01/17 04:31:58;;;;;;;21.67;10.95;;;;;;;-3.15;76.93;95532.91;4976142;28;20065;-42
2021/01/17 04:34:25;;;;;;;18.50;11.18;;;;;;;-3.16;77.39;95523.34;4974405;28;20046;-42
2021/01/17 04:36:53;;;;;;;18.27;10.35;;;;;;;-2.97;76.71;95522.94;4974694;28;20047;-42
2021/01/17 04:39:23;;;;;;;21.13;11.30;;;;;;;-2.94;76.79;95511.84;4975164;28;20050;-42
2021/01/17 04:41:56;;;;;;;17.70;9.85;;;;;;;-2.82;76.02;95521.19;4975899;28;20066;-42
2021/01/17 04:44:32;;;;;;;20.13;10.63;;;;;;;-3.36;77.36;95488.84;4976054;28;20508;-42
2021/01/17 04:47:02;;;;;;;17.45;10.63;;;;;;;-2.95;76.82;95537.53;4975573;28;20062;-42
2021/01/17 04:49:32;;;;;;;19.55;11.05;;;;;;;-3.02;77.29;95544.06;4970121;28;20055;-42
2021/01/17 04:52:01;;;;;;;20.80;11.63;;;;;;;-3.08;77.88;95541.41;4975620;28;20074;-46
2021/01/17 04:54:28;;;;;;;19.30;11.35;;;;;;;-3.11;78.01;95520.75;4975754;28;20051;-41
2021/01/17 04:57:07;;;;;;;18.88;10.27;;;;;;;-3.00;78.00;95531.41;4973700;28;20051;-45
2021/01/17 04:59:36;;;;;;;20.90;11.52;;;;;;;-2.85;77.41;95526.19;4968303;28;20069;-41
2021/01/17 05:02:32;;;;;;;21.48;11.10;;;;;;;-2.99;77.86;95525.03;4975996;28;20078;-41
2021/01/17 05:05:14;;;;;;;17.30;10.13;;;;;;;-3.18;78.46;95522.84;4975337;28;20051;-41
2021/01/17 05:07:49;;;;;;;20.08;10.52;;;;;;;-3.13;78.50;95522.84;4966784;28;20098;-41
2021/01/17 05:10:33;;;;;;;16.48;9.27;;;;;;;-3.00;78.29;95532.19;4971943;28;20051;-42
2021/01/17 05:13:11;;;;;;;18.88;10.20;;;;;;;-2.91;78.09;95516.63;4974352;28;20134;-41
2021/01/17 05:15:39;;;;;;;19.98;10.00;;;;;;;-2.83;77.51;95524.88;4964031;28;20102;-43
2021/01/17 05:18:08;;;;;;;18.00;9.43;;;;;;;-2.83;77.28;95524.06;4964055;28;20420;-43
2021/01/17 05:20:35;;;;;;;17.67;9.65;;;;;;;-2.82;77.52;95515.88;4972595;28;20137;-43
2021/01/17 05:23:07;;;;;;;17.10;10.52;;;;;;;-2.82;76.99;95501.84;4974800;28;20085;-40
2021/01/17 05:25:33;;;;;;;18.58;9.82;;;;;;;-2.72;76.82;95506.41;4961300;28;20512;-43
2021/01/17 05:28:00;;;;;;;17.50;9.88;;;;;;;-2.56;76.80;95523.16;4962168;28;20074;-42
2021/01/17 05:30:27;;;;;;;17.23;9.43;;;;;;;-2.72;77.33;95491.31;4975164;28;20134;-41
2021/01/17 05:32:54;;;;;;;21.48;10.70;;;;;;;-2.34;76.77;95523.75;4974861;28;20055;-41
2021/01/17 05:35:22;;;;;;;18.58;10.30;;;;;;;-2.12;76.20;95526.97;4973933;28;20047;-41
2021/01/17 05:37:54;;;;;;;18.75;10.15;;;;;;;-2.03;75.89;95534.44;4974722;28;20461;-41
2021/01/17 05:40:22;;;;;;;17.85;9.57;;;;;;;-2.07;75.60;95533.38;4975352;28;20046;-41
2021/01/17 05:42:50;;;;;;;18.58;10.38;;;;;;;-2.09;75.90;95533.63;4973321;28;20500;-43
2021/01/17 05:45:21;;;;;;;19.70;9.75;;;;;;;-2.09;76.15;95533.63;4974920;28;20077;-43
2021/01/17 05:47:51;;;;;;;17.20;8.85;;;;;;;-2.12;76.45;95532.28;4971841;28;20065;-42
2021/01/17 05:50:18;;;;;;;15.63;8.43;;;;;;;-2.14;76.16;95537.06;4961168;28;20506;-42
2021/01/17 05:52:51;;;;;;;14.82;8.60;;;;;;;-2.61;76.45;95469.09;4966959;28;20483;-44
2021/01/17 05:55:18;;;;;;;16.00;8.68;;;;;;;-2.39;77.05;95540.44;4973800;28;20509;-42
2021/01/17 05:57:44;;;;;;;20.00;9.77;;;;;;;-2.47;77.60;95538.28;4964376;28;20529;-45
2021/01/17 06:00:11;;;;;;;14.82;8.48;;;;;;;-2.49;78.04;95540.38;4954549;29;20074;-45
2021/01/17 06:02:40;;;;;;;15.07;8.15;;;;;;;-2.42;78.00;95540.16;4966360;28;20078;-48
2021/01/17 06:05:10;;;;;;;14.88;8.63;;;;;;;-2.43;78.16;95538.56;4973007;28;20050;-44
2021/01/17 06:07:38;;;;;;;15.82;8.30;;;;;;;-2.41;78.27;95536.44;4973420;28;20051;-45
2021/01/17 06:10:06;;;;;;;18.73;9.88;;;;;;;-2.51;78.00;95525.81;4974776;28;20050;-45
2021/01/17 06:12:38;;;;;;;14.45;8.32;;;;;;;-2.33;78.22;95549.19;4964200;28;20106;-47
2021/01/17 06:15:09;;;;;;;15.95;8.98;;;;;;;-2.25;78.09;95540.72;4970846;28;20070;-45
2021/01/17 06:17:38;;;;;;;16.15;8.80;;;;;;;-2.29;77.88;95522.97;4974381;28;20055;-48
2021/01/17 06:20:09;;;;;;;17.25;9.27;;;;;;;-2.20;77.89;95534.66;4962586;28;20062;-47
2021/01/17 06:22:36;;;;;;;17.73;10.50;;;;;;;-2.18;78.62;95536.00;4971045;28;20476;-45
2021/01/17 06:25:05;;;;;;;15.90;9.20;;;;;;;-2.14;78.12;95542.38;4973703;28;20057;-45
2021/01/17 06:27:32;;;;;;;15.63;8.77;;;;;;;-2.61;77.85;95489.47;4972861;28;20074;-44
2021/01/17 06:29:59;;;;;;;16.83;8.68;;;;;;;-2.34;77.82;95526.38;4973341;28;20061;-44
2021/01/17 06:32:29;;;;;;;17.33;8.55;;;;;;;-2.23;78.33;95543.94;4973800;28;20055;-44
2021/01/17 06:34:58;;;;;;;18.92;9.50;;;;;;;-2.09;77.80;95549.53;4974869;28;20053;-44
2021/01/17 06:37:28;;;;;;;13.88;7.93;;;;;;;-2.01;77.33;95550.88;4967147;28;20051;-44
2021/01/17 06:39:57;;;;;;;17.45;9.20;;;;;;;-2.30;77.51;95513.44;4956079;28;20389;-44
2021/01/17 06:42:24;;;;;;;15.57;8.57;;;;;;;-1.89;77.33;95549.56;4966276;28;20137;-44
2021/01/17 06:44:52;;;;;;;17.88;9.23;;;;;;;-1.83;76.71;95553.03;4954697;28;20169;-44
2021/01/17 06:47:26;;;;;;;20.05;9.65;;;;;;;-1.88;77.32;95555.69;4971727;28;20054;-45
2021/01/17 06:49:55;;;;;;;16.27;8.73;;;;;;;-1.84;77.02;95551.44;4974499;28;20116;-45
2021/01/17 06:52:22;;;;;;;15.15;8.52;;;;;;;-1.90;76.94;95545.31;4975860;28;20521;-44
2021/01/17 06:54:51;;;;;;;13.23;7.50;;;;;;;-1.89;77.41;95546.91;4973337;28;20516;-44
2021/01/17 06:57:19;;;;;;;15.73;8.10;;;;;;;-2.20;78.50;95547.91;4974300;28;20055;-44
2021/01/17 06:59:48;;;;;;;12.38;6.97;;;;;;;-2.22;78.82;95550.81;4959983;28;20062;-46
2021/01/17 07:02:18;;;;;;;11.32;6.60;;;;;;;-2.33;79.28;95551.84;4963988;23;20534;-45
2021/01/17 07:05:07;;;;;;;11.68;6.38;;;;;;;-2.21;79.54;95554.25;4952853;29;20062;-44
2021/01/17 07:07:52;;;;;;;13.57;7.18;;;;;;;-2.14;79.62;95550.31;4953737;29;20055;-44
2021/01/17 07:10:23;;;;;;;12.48;6.82;;;;;;;-1.98;78.62;95553.00;4950792;29;20079;-42
2021/01/17 07:13:04;;;;;;;11.77;6.55;;;;;;;-1.76;77.91;95558.88;4948776;29;20086;-42
2021/01/17 07:15:38;;;;;;;11.20;6.72;;;;;;;-1.77;77.32;95551.19;4953356;28;20079;-44
2021/01/17 07:18:07;;;;;;;12.63;6.05;;;;;;;-2.08;78.03;95560.91;4953288;28;20098;-44
2021/01/17 07:20:36;;;;;;;10.48;6.03;;;;;;;-1.86;78.06;95566.81;4937775;28;20055;-43
2021/01/17 07:23:04;;;;;;;12.52;6.43;;;;;;;-1.80;77.92;95565.75;4949579;29;20067;-42
2021/01/17 07:25:33;;;;;;;10.82;6.40;;;;;;;-1.77;77.30;95565.25;4952863;28;20133;-43
2021/01/17 07:28:05;;;;;;;11.18;6.50;;;;;;;-1.97;78.08;95562.56;4947640;28;20390;-45
2021/01/17 07:30:49;;;;;;;12.15;6.63;;;;;;;-2.02;78.64;95565.19;4934541;29;20082;-42
2021/01/17 07:33:23;;;;;;;12.18;6.97;;;;;;;-1.93;78.92;95560.97;4933580;29;20083;-45
2021/01/17 07:35:50;;;;;;;12.75;7.18;;;;;;;-1.66;77.86;95566.03;4939725;29;20043;-45
2021/01/17 07:38:20;;;;;;;10.32;5.85;;;;;;;-1.60;77.59;95564.19;4935501;28;20118;-43
2021/01/17 07:41:04;;;;;;;10.95;6.80;;;;;;;-1.34;76.83;95572.97;4953504;28;20098;-45
2021/01/17 07:43:38;;;;;;;13.10;7.10;;;;;;;-1.23;76.38;95569.28;4951964;28;20105;-46
2021/01/17 07:46:17;;;;;;;12.10;6.75;;;;;;;-1.03;76.20;95579.06;4934228;29;20351;-43
2021/01/17 07:48:45;;;;;;;11.48;6.80;;;;;;;-1.23;75.78;95571.94;4936295;29;20055;-44
2021/01/17 07:51:14;;;;;;;12.60;7.15;;;;;;;-1.52;77.00;95566.34;4934251;29;20121;-43
2021/01/17 07:54:16;;;;;;;10.98;6.57;;;;;;;-1.69;78.69;95578.00;4949271;29;20469;-45
2021/01/17 07:56:45;;;;;;;13.10;6.47;;;;;;;-1.67;77.90;95570.56;4952307;28;20051;-48
2021/01/17 07:59:12;;;;;;;11.32;6.30;;;;;;;-1.54;77.96;95579.84;4940139;28;20143;-43
2021/01/17 08:01:39;;;;;;;13.32;7.65;;;;;;;-1.48;77.59;95575.34;4933619;29;20169;-44
2021/01/17 08:04:05;;;;;;;11.85;6.22;;;;;;;-1.28;76.95;95580.66;4932934;29;20130;-42
2021/01/17 08:06:35;;;;;;;12.00;6.75;;;;;;;-1.11;76.22;95577.72;4947263;29;20078;-43
2021/01/17 08:09:05;;;;;;;13.85;7.68;;;;;;;-1.42;77.33;95583.06;4934327;28;20095;-47
2021/01/17 08:11:52;;;;;;;11.80;6.90;;;;;;;-2.02;79.54;95579.22;4941887;29;20075;-44
2021/01/17 08:14:25;;;;;;;13.82;7.65;;;;;;;-2.41;82.18;95582.25;4953525;28;20047;-41
2021/01/17 08:17:08;;;;;;;13.82;7.05;;;;;;;-2.28;81.82;95578.34;4951282;28;20469;-44
2021/01/17 08:19:54;;;;;;;10.63;6.22;;;;;;;-1.75;79.60;95584.34;4950592;28;20055;-43
2021/01/17 08:22:23;;;;;;;11.95;6.63;;;;;;;-1.71;79.76;95581.97;4947058;29;20107;-42
2021/01/17 08:24:59;;;;;;;10.10;6.10;;;;;;;-1.26;77.35;95583.06;4952372;28;20056;-45
2021/01/17 08:27:32;;;;;;;13.80;7.18;;;;;;;-1.13;76.98;95571.91;4941473;28;20056;-44
2021/01/17 08:30:08;;;;;;;10.18;6.30;;;;;;;-1.58;78.63;95578.81;4936945;29;20539;-43
2021/01/17 08:32:34;;;;;;;11.30;6.50;;;;;;;-1.15;76.60;95581.19;4952727;28;20078;-43
2021/01/17 08:35:13;;;;;;;9.75;6.00;;;;;;;-0.94;76.64;95588.09;4951681;28;20134;-43
2021/01/17 08:37:41;;;;;;;12.30;6.70;;;;;;;-0.66;75.14;95591.22;4941503;29;20122;-43
2021/01/17 08:40:08;;;;;;;12.85;6.38;;;;;;;-0.80;75.11;95602.41;4939449;28;20056;-43
2021/01/17 08:42:48;;;;;;;10.88;6.13;;;;;;;-0.78;75.33;95597.63;4949262;29;20112;-43
2021/01/17 08:45:20;;;;;;;9.63;5.68;;;;;;;-0.80;75.36;95597.09;4939746;28;20494;-43
2021/01/17 08:47:51;;;;;;;10.32;6.90;;;;;;;-1.39;76.79;95583.59;4950023;29;20247;-45
2021/01/17 08:50:37;;;;;;;11.15;6.72;;;;;;;-2.08;80.43;95593.53;4951568;28;20118;-42
2021/01/17 08:53:11;;;;;;;12.55;7.53;;;;;;;-1.59;79.37;95606.41;4951422;28;20054;-43
2021/01/17 08:55:41;;;;;;;12.10;8.25;;;;;;;-1.29;78.16;95610.13;4942760;28;20067;-44
2021/01/17 08:58:10;;;;;;;15.95;7.85;;;;;;;-0.95;76.66;95621.81;4946344;28;20052;-42
2021/01/17 09:00:48;;;;;;;14.70;7.70;;;;;;;-1.33;78.05;95619.66;4933376;29;20087;-46
2021/01/17 09:03:28;;;;;;;13.32;8.63;;;;;;;-1.75;78.69;95628.66;4944093;29;20114;-43
2021/01/17 09:05:57;;;;;;;16.08;7.68;;;;;;;-1.84;79.98;95628.34;4952169;28;20052;-43
2021/01/17 09:08:24;;;;;;;15.07;8.80;;;;;;;-1.13;77.28;95618.91;4949150;28;20480;-45
2021/01/17 09:10:51;;;;;;;17.13;9.32;;;;;;;-1.02;76.22;95631.91;4952167;28;20082;-43
2021/01/17 09:13:18;;;;;;;17.02;10.00;;;;;;;-1.02;76.73;95626.59;4951548;28;20059;-44
2021/01/17 09:16:06;;;;;;;19.15;10.50;;;;;;;-1.38;77.57;95633.75;4953600;28;20464;-45
2021/01/17 09:18:35;;;;;;;18.88;10.52;;;;;;;-1.44;77.93;95624.19;4954250;29;20114;-45
2021/01/17 09:21:04;;;;;;;27.65;14.98;;;;;;;-1.59;77.67;95640.88;4955273;29;20564;-46
2021/01/17 09:23:36;;;;;;;21.55;11.95;;;;;;;-1.63;77.26;95639.00;4960506;28;20061;-45
2021/01/17 09:26:04;;;;;;;28.63;12.95;;;;;;;-1.75;78.40;95640.03;4975084;28;20122;-45
2021/01/17 09:28:31;;;;;;;25.90;12.80;;;;;;;-1.59;78.20;95640.06;4969333;28;20058;-45
2021/01/17 09:31:00;;;;;;;28.35;14.68;;;;;;;-1.80;78.56;95647.97;4956275;28;20086;-46
2021/01/17 09:33:28;;;;;;;26.83;14.20;;;;;;;-1.37;76.63;95645.16;4954991;28;20047;-48
2021/01/17 09:35:55;;;;;;;26.55;14.48;;;;;;;-1.11;75.54;95648.63;4952909;28;20941;-45
2021/01/17 09:38:23;;;;;;;30.67;15.45;;;;;;;-1.05;74.81;95655.53;4955478;28;20047;-44
2021/01/17 09:40:55;;;;;;;32.97;16.83;;;;;;;-1.84;77.90;95660.16;4953968;28;20453;-42
2021/01/17 09:43:21;;;;;;;34.22;16.98;;;;;;;-1.72;78.28;95663.41;4955406;29;20059;-45
2021/01/17 09:45:57;;;;;;;33.90;15.82;;;;;;;-1.69;78.01;95659.41;4947898;28;20440;-44
2021/01/17 09:48:24;;;;;;;30.50;16.58;;;;;;;-2.00;79.00;95672.56;4955554;28;20070;-43
2021/01/17 09:50:51;;;;;;;29.13;15.55;;;;;;;-2.02;78.59;95668.56;4951080;28;20126;-43
2021/01/17 09:53:19;;;;;;;30.15;16.33;;;;;;;-2.02;79.01;95676.53;4955275;28;20079;-42
2021/01/17 09:55:47;;;;;;;30.83;15.90;;;;;;;-1.86;78.32;95678.19;4954246;28;20090;-42
2021/01/17 09:58:15;;;;;;;33.83;18.40;;;;;;;-2.18;78.54;95679.13;4948475;29;20460;-44
2021/01/17 10:00:43;;;;;;;32.33;16.95;;;;;;;-1.75;77.76;95679.81;4947868;29;20488;-45
2021/01/17 10:03:14;;;;;;;31.70;17.50;;;;;;;-1.92;78.41;95687.16;4954101;29;20055;-44
2021/01/17 10:05:43;;;;;;;31.65;16.92;;;;;;;-1.90;78.38;95685.06;4940464;29;20087;-44
2021/01/17 10:08:15;;;;;;;33.35;17.67;;;;;;;-2.09;79.22;95670.66;4955101;28;20062;-43
2021/01/17 10:10:45;;;;;;;31.95;18.52;;;;;;;-1.86;77.88;95690.66;4954999;28;20051;-42
2021/01/17 10:13:13;;;;;;;35.78;18.65;;;;;;;-1.48;76.66;95676.19;4952916;28;20058;-43
2021/01/17 10:15:40;;;;;;;36.38;18.63;;;;;;;-1.48;75.74;95692.09;4948112;29;20130;-43
2021/01/17 10:18:08;;;;;;;34.35;18.10;;;;;;;-1.45;76.16;95692.38;4953548;28;20055;-41
2021/01/17 10:20:40;;;;;;;33.38;16.55;;;;;;;-1.16;75.71;95699.06;4947731;28;20055;-43
2021/01/17 10:23:16;;;;;;;38.53;18.90;;;;;;;-0.95;73.37;95695.38;4953740;28;20520;-42
2021/01/17 10:25:44;;;;;;;37.00;17.70;;;;;;;-1.20;74.40;95694.28;4951197;28;20043;-42
2021/01/17 10:28:12;;;;;;;36.10;17.85;;;;;;;-1.21;75.25;95702.50;4954045;28;20058;-42
2021/01/17 10:30:41;;;;;;;39.03;18.92;;;;;;;-1.53;76.19;95694.72;4953722;29;20059;-43
2021/01/17 10:33:11;;;;;;;36.28;18.98;;;;;;;-1.29;76.41;95695.88;4940656;29;20146;-44
2021/01/17 10:35:49;;;;;;;35.78;18.10;;;;;;;-1.77;76.62;95679.28;4948522;28;20501;-43
2021/01/17 10:38:18;;;;;;;38.83;18.73;;;;;;;-2.15;78.14;95699.00;4944913;28;20044;-43
2021/01/17 10:40:45;;;;;;;35.35;17.52;;;;;;;-2.31;79.48;95699.97;4947195;28;20070;-42
2021/01/17 10:43:31;;;;;;;37.47;19.50;;;;;;;-2.13;78.49;95694.25;4947798;28;20135;-41
2021/01/17 10:46:17;;;;;;;39.55;19.58;;;;;;;-2.27;78.45;95695.75;4948206;28;20519;-42
2021/01/17 10:48:52;;;;;;;35.30;18.10;;;;;;;-2.33;80.22;95692.28;4950282;28;20055;-42
2021/01/17 10:51:34;;;;;;;33.45;18.23;;;;;;;-1.63;77.49;95695.50;4971886;28;20499;-43
2021/01/17 10:54:04;;;;;;;36.45;18.95;;;;;;;-1.19;75.72;95690.56;4943222;28;20091;-42
2021/01/17 10:56:32;;;;;;;40.15;19.02;;;;;;;-1.26;74.95;95683.94;4945706;28;20110;-42
2021/01/17 10:59:01;;;;;;;35.58;19.05;;;;;;;-1.23;74.81;95694.81;4943692;28;20409;-42
2021/01/17 11:01:33;;;;;;;42.70;21.85;;;;;;;-2.21;77.19;95620.50;4942629;28;20158;-41
2021/01/17 11:04:00;;;;;;;45.58;21.75;;;;;;;-2.40;80.86;95681.13;4950557;28;20059;-42
2021/01/17 11:06:28;;;;;;;43.15;21.23;;;;;;;-2.57;80.48;95636.22;4941742;29;20062;-42
2021/01/17 11:08:59;;;;;;;45.08;22.83;;;;;;;-2.33;82.25;95686.19;4952738;29;20767;-41
2021/01/17 11:11:30;;;;;;;38.65;21.08;;;;;;;-2.09;79.77;95673.31;4953884;29;20066;-42
2021/01/17 11:14:01;;;;;;;39.63;21.10;;;;;;;-2.07;79.49;95671.22;4945728;28;20078;-43
2021/01/17 11:16:52;;;;;;;41.10;21.08;;;;;;;-1.83;80.20;95685.63;4947581;28;20110;-43
2021/01/17 11:19:39;;;;;;;38.67;19.33;;;;;;;-0.83;75.82;95677.31;4942692;29;20054;-42
2021/01/17 11:22:07;;;;;;;35.70;19.25;;;;;;;-0.82;74.96;95681.56;4950596;29;20066;-43
2021/01/17 11:24:39;;;;;;;37.03;18.92;;;;;;;-0.38;74.36;95686.31;4944435;28;20102;-41
2021/01/17 11:27:10;;;;;;;37.23;18.77;;;;;;;-0.74;74.22;95674.94;4943480;28;20134;-42
2021/01/17 11:29:37;;;;;;;36.15;20.45;;;;;;;-0.98;73.73;95685.28;4950412;28;20138;-43
2021/01/17 11:32:04;;;;;;;39.45;20.23;;;;;;;-1.00;75.18;95682.09;4954588;28;20059;-41
2021/01/17 11:34:36;;;;;;;33.17;18.20;;;;;;;-0.81;73.97;95691.13;4935799;29;20050;-43